sensor_id;sensor_type;location;lat;lon;timestamp;P1;durP1;ratioP1;P2;durP2;ratioP2
10957;SDS011;5531;42.570;23.676;2023-05-10T00:00:44;8.68;;;7.47;;
10957;SDS011;5531;42.570;23.676;2023-05-10T00:03:12;8.88;;;7.10;;
10957;SDS011;5531;42.570;23.676;2023-05-10T00:05:41;9.98;;;7.60;;
10957;SDS011;5531;42.570;23.676;2023-05-10T00:08:12;7.82;;;6.88;;
10957;SDS011;5531;42.570;23.676;2023-05-10T00:10:41;7.82;;;6.63;;
10957;SDS011;5531;42.570;23.676;2023-05-10T00:13:09;8.40;;;7.00;;
10957;SDS011;5531;42.570;23.676;2023-05-10T00:15:38;8.10;;;7.28;;
10957;SDS011;5531;42.570;23.676;2023-05-10T00:18:06;8.05;;;6.72;;
10957;SDS011;5531;42.570;23.676;2023-05-10T00:20:35;9.40;;;7.00;;
10957;SDS011;5531;42.570;23.676;2023-05-10T00:23:03;9.35;;;6.07;;
10957;SDS011;5531;42.570;23.676;2023-05-10T00:25:35;7.20;;;6.32;;
10957;SDS011;5531;42.570;23.676;2023-05-10T00:28:03;6.45;;;5.68;;
10957;SDS011;5531;42.570;23.676;2023-05-10T00:30:32;6.40;;;5.70;;
10957;SDS011;5531;42.570;23.676;2023-05-10T00:33:01;7.18;;;5.35;;
10957;SDS011;5531;42.570;23.676;2023-05-10T00:35:29;7.22;;;6.45;;
10957;SDS011;5531;42.570;23.676;2023-05-10T00:37:58;7.25;;;6.00;;
10957;SDS011;5531;42.570;23.676;2023-05-10T00:40:26;7.55;;;6.78;;
10957;SDS011;5531;42.570;23.676;2023-05-10T00:42:58;7.38;;;6.47;;
10957;SDS011;5531;42.570;23.676;2023-05-10T00:45:27;7.63;;;6.60;;
10957;SDS011;5531;42.570;23.676;2023-05-10T00:47:56;7.55;;;6.45;;
10957;SDS011;5531;42.570;23.676;2023-05-10T00:50:25;7.25;;;6.50;;
10957;SDS011;5531;42.570;23.676;2023-05-10T00:52:54;7.13;;;6.43;;
10957;SDS011;5531;42.570;23.676;2023-05-10T00:55:22;7.57;;;6.28;;
10957;SDS011;5531;42.570;23.676;2023-05-10T00:57:52;9.20;;;6.60;;
10957;SDS011;5531;42.570;23.676;2023-05-10T01:00:23;7.85;;;6.15;;
10957;SDS011;5531;42.570;23.676;2023-05-10T01:02:52;7.35;;;6.35;;
10957;SDS011;5531;42.570;23.676;2023-05-10T01:05:21;6.72;;;6.03;;
10957;SDS011;5531;42.570;23.676;2023-05-10T01:07:49;7.35;;;6.60;;
10957;SDS011;5531;42.570;23.676;2023-05-10T01:10:18;7.18;;;6.47;;
10957;SDS011;5531;42.570;23.676;2023-05-10T01:12:47;9.20;;;6.85;;
10957;SDS011;5531;42.570;23.676;2023-05-10T01:15:15;8.05;;;7.22;;
10957;SDS011;5531;42.570;23.676;2023-05-10T01:17:47;10.27;;;7.60;;
10957;SDS011;5531;42.570;23.676;2023-05-10T01:20:16;9.77;;;7.50;;
10957;SDS011;5531;42.570;23.676;2023-05-10T01:25:32;10.15;;;7.45;;
10957;SDS011;5531;42.570;23.676;2023-05-10T01:33:35;8.65;;;6.85;;
10957;SDS011;5531;42.570;23.676;2023-05-10T01:36:08;7.35;;;6.47;;
10957;SDS011;5531;42.570;23.676;2023-05-10T01:38:42;8.13;;;7.20;;
10957;SDS011;5531;42.570;23.676;2023-05-10T01:41:14;7.43;;;6.63;;
10957;SDS011;5531;42.570;23.676;2023-05-10T01:43:44;9.05;;;7.00;;
10957;SDS011;5531;42.570;23.676;2023-05-10T01:46:15;7.88;;;6.78;;
10957;SDS011;5531;42.570;23.676;2023-05-10T01:48:48;8.65;;;6.97;;
10957;SDS011;5531;42.570;23.676;2023-05-10T01:51:21;8.18;;;6.68;;
10957;SDS011;5531;42.570;23.676;2023-05-10T01:53:51;6.20;;;5.10;;
10957;SDS011;5531;42.570;23.676;2023-05-10T01:56:20;5.43;;;4.60;;
10957;SDS011;5531;42.570;23.676;2023-05-10T01:58:51;6.97;;;5.47;;
10957;SDS011;5531;42.570;23.676;2023-05-10T02:01:20;7.88;;;5.50;;
10957;SDS011;5531;42.570;23.676;2023-05-10T02:03:52;5.28;;;4.78;;
10957;SDS011;5531;42.570;23.676;2023-05-10T02:06:21;6.35;;;5.43;;
10957;SDS011;5531;42.570;23.676;2023-05-10T02:08:50;6.13;;;4.93;;
10957;SDS011;5531;42.570;23.676;2023-05-10T02:11:20;6.25;;;4.93;;
10957;SDS011;5531;42.570;23.676;2023-05-10T02:13:49;5.93;;;5.05;;
10957;SDS011;5531;42.570;23.676;2023-05-10T02:16:18;5.57;;;4.50;;
10957;SDS011;5531;42.570;23.676;2023-05-10T02:18:54;5.82;;;5.18;;
10957;SDS011;5531;42.570;23.676;2023-05-10T02:21:24;7.70;;;5.22;;
10957;SDS011;5531;42.570;23.676;2023-05-10T02:23:54;6.43;;;4.85;;
10957;SDS011;5531;42.570;23.676;2023-05-10T02:26:23;7.78;;;5.20;;
10957;SDS011;5531;42.570;23.676;2023-05-10T02:28:53;6.90;;;5.50;;
10957;SDS011;5531;42.570;23.676;2023-05-10T02:31:23;6.93;;;5.18;;
10957;SDS011;5531;42.570;23.676;2023-05-10T02:33:55;5.60;;;4.50;;
10957;SDS011;5531;42.570;23.676;2023-05-10T02:36:25;6.47;;;5.60;;
10957;SDS011;5531;42.570;23.676;2023-05-10T02:38:54;6.25;;;5.00;;
10957;SDS011;5531;42.570;23.676;2023-05-10T02:41:23;6.32;;;5.50;;
10957;SDS011;5531;42.570;23.676;2023-05-10T02:43:52;6.03;;;4.85;;
10957;SDS011;5531;42.570;23.676;2023-05-10T02:46:23;6.10;;;4.80;;
10957;SDS011;5531;42.570;23.676;2023-05-10T02:48:55;6.50;;;5.13;;
10957;SDS011;5531;42.570;23.676;2023-05-10T02:51:24;9.02;;;5.10;;
10957;SDS011;5531;42.570;23.676;2023-05-10T02:53:53;5.55;;;4.45;;
10957;SDS011;5531;42.570;23.676;2023-05-10T02:56:23;6.28;;;4.95;;
10957;SDS011;5531;42.570;23.676;2023-05-10T02:58:53;5.85;;;4.93;;
10957;SDS011;5531;42.570;23.676;2023-05-10T03:01:21;7.53;;;4.93;;
10957;SDS011;5531;42.570;23.676;2023-05-10T03:03:50;5.97;;;5.18;;
10957;SDS011;5531;42.570;23.676;2023-05-10T03:06:21;5.65;;;4.88;;
10957;SDS011;5531;42.570;23.676;2023-05-10T03:08:49;6.88;;;4.75;;
10957;SDS011;5531;42.570;23.676;2023-05-10T03:11:28;7.22;;;5.30;;
10957;SDS011;5531;42.570;23.676;2023-05-10T03:14:05;7.25;;;4.93;;
10957;SDS011;5531;42.570;23.676;2023-05-10T03:16:39;7.18;;;4.57;;
10957;SDS011;5531;42.570;23.676;2023-05-10T03:19:12;6.88;;;4.75;;
10957;SDS011;5531;42.570;23.676;2023-05-10T03:21:47;5.45;;;4.60;;
10957;SDS011;5531;42.570;23.676;2023-05-10T03:24:18;5.53;;;4.78;;
10957;SDS011;5531;42.570;23.676;2023-05-10T03:26:48;4.80;;;4.25;;
10957;SDS011;5531;42.570;23.676;2023-05-10T03:29:17;5.25;;;4.45;;
10957;SDS011;5531;42.570;23.676;2023-05-10T03:31:46;5.50;;;4.30;;
10957;SDS011;5531;42.570;23.676;2023-05-10T03:34:15;5.63;;;4.60;;
10957;SDS011;5531;42.570;23.676;2023-05-10T03:36:43;5.30;;;4.00;;
10957;SDS011;5531;42.570;23.676;2023-05-10T03:39:14;5.55;;;4.70;;
10957;SDS011;5531;42.570;23.676;2023-05-10T03:41:43;4.70;;;4.30;;
10957;SDS011;5531;42.570;23.676;2023-05-10T03:44:12;5.70;;;4.18;;
10957;SDS011;5531;42.570;23.676;2023-05-10T03:46:40;5.22;;;4.25;;
10957;SDS011;5531;42.570;23.676;2023-05-10T03:49:09;5.85;;;3.90;;
10957;SDS011;5531;42.570;23.676;2023-05-10T03:51:37;4.45;;;4.03;;
10957;SDS011;5531;42.570;23.676;2023-05-10T03:54:06;5.10;;;4.13;;
10957;SDS011;5531;42.570;23.676;2023-05-10T03:56:37;5.93;;;4.28;;
10957;SDS011;5531;42.570;23.676;2023-05-10T03:59:05;5.38;;;4.28;;
10957;SDS011;5531;42.570;23.676;2023-05-10T04:01:34;5.80;;;4.55;;
10957;SDS011;5531;42.570;23.676;2023-05-10T04:04:03;6.20;;;5.15;;
10957;SDS011;5531;42.570;23.676;2023-05-10T04:06:32;5.75;;;4.82;;
10957;SDS011;5531;42.570;23.676;2023-05-10T04:09:00;6.65;;;4.97;;
10957;SDS011;5531;42.570;23.676;2023-05-10T04:11:29;6.03;;;5.40;;
10957;SDS011;5531;42.570;23.676;2023-05-10T04:14:01;6.90;;;5.25;;
10957;SDS011;5531;42.570;23.676;2023-05-10T04:16:29;9.10;;;5.40;;
10957;SDS011;5531;42.570;23.676;2023-05-10T04:18:58;8.25;;;6.18;;
10957;SDS011;5531;42.570;23.676;2023-05-10T04:21:26;5.65;;;4.72;;
10957;SDS011;5531;42.570;23.676;2023-05-10T04:23:55;8.73;;;5.43;;
10957;SDS011;5531;42.570;23.676;2023-05-10T04:26:24;8.50;;;6.55;;
10957;SDS011;5531;42.570;23.676;2023-05-10T04:28:53;7.63;;;5.57;;
10957;SDS011;5531;42.570;23.676;2023-05-10T04:31:24;7.43;;;5.55;;
10957;SDS011;5531;42.570;23.676;2023-05-10T04:33:53;7.15;;;6.00;;
10957;SDS011;5531;42.570;23.676;2023-05-10T04:36:21;8.55;;;6.00;;
10957;SDS011;5531;42.570;23.676;2023-05-10T04:38:50;9.60;;;6.63;;
10957;SDS011;5531;42.570;23.676;2023-05-10T04:41:19;6.82;;;5.97;;
10957;SDS011;5531;42.570;23.676;2023-05-10T04:43:47;8.50;;;6.30;;
10957;SDS011;5531;42.570;23.676;2023-05-10T04:46:17;6.20;;;5.18;;
10957;SDS011;5531;42.570;23.676;2023-05-10T04:48:48;6.82;;;5.63;;
10957;SDS011;5531;42.570;23.676;2023-05-10T04:51:17;7.78;;;6.07;;
10957;SDS011;5531;42.570;23.676;2023-05-10T04:53:45;7.80;;;5.82;;
10957;SDS011;5531;42.570;23.676;2023-05-10T04:56:14;7.38;;;5.47;;
10957;SDS011;5531;42.570;23.676;2023-05-10T04:58:42;6.45;;;5.60;;
10957;SDS011;5531;42.570;23.676;2023-05-10T05:01:11;7.95;;;6.10;;
10957;SDS011;5531;42.570;23.676;2023-05-10T05:03:40;7.97;;;5.60;;
10957;SDS011;5531;42.570;23.676;2023-05-10T05:06:11;7.13;;;5.25;;
10957;SDS011;5531;42.570;23.676;2023-05-10T05:08:39;9.55;;;5.50;;
10957;SDS011;5531;42.570;23.676;2023-05-10T05:11:08;6.25;;;5.38;;
10957;SDS011;5531;42.570;23.676;2023-05-10T05:13:37;7.40;;;5.53;;
10957;SDS011;5531;42.570;23.676;2023-05-10T05:16:05;6.57;;;5.43;;
10957;SDS011;5531;42.570;23.676;2023-05-10T05:18:34;10.43;;;5.53;;
10957;SDS011;5531;42.570;23.676;2023-05-10T05:21:03;5.95;;;5.30;;
10957;SDS011;5531;42.570;23.676;2023-05-10T05:23:34;5.78;;;5.15;;
10957;SDS011;5531;42.570;23.676;2023-05-10T05:26:02;6.75;;;5.35;;
10957;SDS011;5531;42.570;23.676;2023-05-10T05:28:31;6.75;;;4.82;;
10957;SDS011;5531;42.570;23.676;2023-05-10T05:31:02;6.35;;;5.03;;
10957;SDS011;5531;42.570;23.676;2023-05-10T05:33:31;7.00;;;5.65;;
10957;SDS011;5531;42.570;23.676;2023-05-10T05:36:00;6.18;;;5.28;;
10957;SDS011;5531;42.570;23.676;2023-05-10T05:38:28;8.00;;;5.15;;
10957;SDS011;5531;42.570;23.676;2023-05-10T05:40:59;6.90;;;5.38;;
10957;SDS011;5531;42.570;23.676;2023-05-10T05:43:31;6.28;;;4.95;;
10957;SDS011;5531;42.570;23.676;2023-05-10T05:46:02;6.07;;;4.65;;
10957;SDS011;5531;42.570;23.676;2023-05-10T05:48:31;6.07;;;4.65;;
10957;SDS011;5531;42.570;23.676;2023-05-10T05:50:59;5.78;;;5.18;;
10957;SDS011;5531;42.570;23.676;2023-05-10T05:53:28;7.10;;;4.60;;
10957;SDS011;5531;42.570;23.676;2023-05-10T05:55:57;6.78;;;6.07;;
10957;SDS011;5531;42.570;23.676;2023-05-10T05:58:28;6.25;;;4.35;;
10957;SDS011;5531;42.570;23.676;2023-05-10T06:00:57;6.03;;;4.35;;
10957;SDS011;5531;42.570;23.676;2023-05-10T06:03:25;7.40;;;4.38;;
10957;SDS011;5531;42.570;23.676;2023-05-10T06:05:53;7.18;;;6.00;;
10957;SDS011;5531;42.570;23.676;2023-05-10T06:08:22;5.03;;;4.38;;
10957;SDS011;5531;42.570;23.676;2023-05-10T06:10:50;12.05;;;10.82;;
10957;SDS011;5531;42.570;23.676;2023-05-10T06:13:19;5.47;;;4.60;;
10957;SDS011;5531;42.570;23.676;2023-05-10T06:15:50;5.47;;;4.72;;
10957;SDS011;5531;42.570;23.676;2023-05-10T06:18:19;7.28;;;6.57;;
10957;SDS011;5531;42.570;23.676;2023-05-10T06:20:47;5.85;;;4.55;;
10957;SDS011;5531;42.570;23.676;2023-05-10T06:23:17;16.13;;;14.85;;
10957;SDS011;5531;42.570;23.676;2023-05-10T06:25:45;5.35;;;4.43;;
10957;SDS011;5531;42.570;23.676;2023-05-10T06:28:14;4.47;;;4.07;;
10957;SDS011;5531;42.570;23.676;2023-05-10T06:30:43;4.97;;;4.25;;
10957;SDS011;5531;42.570;23.676;2023-05-10T06:33:14;5.07;;;4.53;;
10957;SDS011;5531;42.570;23.676;2023-05-10T06:35:43;5.65;;;4.30;;
10957;SDS011;5531;42.570;23.676;2023-05-10T06:38:12;4.90;;;4.40;;
10957;SDS011;5531;42.570;23.676;2023-05-10T06:40:41;7.18;;;4.90;;
10957;SDS011;5531;42.570;23.676;2023-05-10T06:43:10;5.50;;;4.68;;
10957;SDS011;5531;42.570;23.676;2023-05-10T06:45:38;4.57;;;4.18;;
10957;SDS011;5531;42.570;23.676;2023-05-10T06:48:07;5.05;;;4.50;;
10957;SDS011;5531;42.570;23.676;2023-05-10T06:50:38;6.28;;;4.15;;
10957;SDS011;5531;42.570;23.676;2023-05-10T06:53:06;5.20;;;4.70;;
10957;SDS011;5531;42.570;23.676;2023-05-10T06:55:35;4.78;;;4.10;;
10957;SDS011;5531;42.570;23.676;2023-05-10T06:58:03;4.25;;;3.85;;
10957;SDS011;5531;42.570;23.676;2023-05-10T07:00:32;5.00;;;4.50;;
10957;SDS011;5531;42.570;23.676;2023-05-10T07:03:04;4.70;;;4.22;;
10957;SDS011;5531;42.570;23.676;2023-05-10T07:05:33;5.13;;;4.32;;
10957;SDS011;5531;42.570;23.676;2023-05-10T07:08:04;4.82;;;4.30;;
10957;SDS011;5531;42.570;23.676;2023-05-10T07:10:32;4.85;;;4.38;;
10957;SDS011;5531;42.570;23.676;2023-05-10T07:13:01;5.60;;;4.53;;
10957;SDS011;5531;42.570;23.676;2023-05-10T07:15:30;5.82;;;4.38;;
10957;SDS011;5531;42.570;23.676;2023-05-10T07:17:58;5.75;;;4.97;;
10957;SDS011;5531;42.570;23.676;2023-05-10T07:20:27;5.38;;;4.88;;
10957;SDS011;5531;42.570;23.676;2023-05-10T07:22:55;4.88;;;4.38;;
10957;SDS011;5531;42.570;23.676;2023-05-10T07:25:27;5.68;;;4.82;;
10957;SDS011;5531;42.570;23.676;2023-05-10T07:27:56;5.53;;;4.88;;
10957;SDS011;5531;42.570;23.676;2023-05-10T07:30:24;6.13;;;4.57;;
10957;SDS011;5531;42.570;23.676;2023-05-10T07:32:53;6.93;;;4.88;;
10957;SDS011;5531;42.570;23.676;2023-05-10T07:35:21;6.60;;;5.40;;
10957;SDS011;5531;42.570;23.676;2023-05-10T07:37:50;6.00;;;5.40;;
10957;SDS011;5531;42.570;23.676;2023-05-10T07:40:18;6.50;;;4.40;;
10957;SDS011;5531;42.570;23.676;2023-05-10T07:42:50;6.05;;;5.10;;
10957;SDS011;5531;42.570;23.676;2023-05-10T07:45:19;7.05;;;5.07;;
10957;SDS011;5531;42.570;23.676;2023-05-10T07:47:48;6.75;;;4.75;;
10957;SDS011;5531;42.570;23.676;2023-05-10T07:50:16;7.32;;;4.90;;
10957;SDS011;5531;42.570;23.676;2023-05-10T07:52:46;6.30;;;4.90;;
10957;SDS011;5531;42.570;23.676;2023-05-10T07:55:15;5.95;;;4.95;;
10957;SDS011;5531;42.570;23.676;2023-05-10T07:57:43;6.50;;;5.38;;
10957;SDS011;5531;42.570;23.676;2023-05-10T08:00:15;5.93;;;5.18;;
10957;SDS011;5531;42.570;23.676;2023-05-10T08:02:45;5.90;;;5.13;;
10957;SDS011;5531;42.570;23.676;2023-05-10T08:05:13;6.35;;;5.25;;
10957;SDS011;5531;42.570;23.676;2023-05-10T08:07:42;6.45;;;5.35;;
10957;SDS011;5531;42.570;23.676;2023-05-10T08:10:11;5.22;;;4.50;;
10957;SDS011;5531;42.570;23.676;2023-05-10T08:12:39;6.75;;;4.85;;
10957;SDS011;5531;42.570;23.676;2023-05-10T08:15:08;6.05;;;5.15;;
10957;SDS011;5531;42.570;23.676;2023-05-10T08:17:40;6.55;;;5.28;;
10957;SDS011;5531;42.570;23.676;2023-05-10T08:20:08;6.78;;;5.30;;
10957;SDS011;5531;42.570;23.676;2023-05-10T08:22:38;5.88;;;5.28;;
10957;SDS011;5531;42.570;23.676;2023-05-10T08:25:07;5.97;;;5.38;;
10957;SDS011;5531;42.570;23.676;2023-05-10T08:27:35;5.68;;;5.07;;
10957;SDS011;5531;42.570;23.676;2023-05-10T08:30:04;6.38;;;5.78;;
10957;SDS011;5531;42.570;23.676;2023-05-10T08:32:33;6.80;;;6.13;;
10957;SDS011;5531;42.570;23.676;2023-05-10T08:35:06;7.97;;;7.18;;
10957;SDS011;5531;42.570;23.676;2023-05-10T08:37:34;6.28;;;5.25;;
10957;SDS011;5531;42.570;23.676;2023-05-10T08:40:03;5.95;;;5.20;;
10957;SDS011;5531;42.570;23.676;2023-05-10T08:42:33;5.10;;;4.60;;
10957;SDS011;5531;42.570;23.676;2023-05-10T08:45:03;5.18;;;4.68;;
10957;SDS011;5531;42.570;23.676;2023-05-10T08:47:33;7.00;;;4.43;;
10957;SDS011;5531;42.570;23.676;2023-05-10T08:50:06;5.70;;;4.45;;
10957;SDS011;5531;42.570;23.676;2023-05-10T08:52:35;4.30;;;3.88;;
10957;SDS011;5531;42.570;23.676;2023-05-10T08:55:06;6.30;;;4.30;;
10957;SDS011;5531;42.570;23.676;2023-05-10T08:57:35;5.18;;;3.80;;
10957;SDS011;5531;42.570;23.676;2023-05-10T09:00:04;4.47;;;4.07;;
10957;SDS011;5531;42.570;23.676;2023-05-10T09:02:33;4.85;;;4.35;;
10957;SDS011;5531;42.570;23.676;2023-05-10T09:05:01;4.13;;;3.65;;
10957;SDS011;5531;42.570;23.676;2023-05-10T09:07:33;4.55;;;4.03;;
10957;SDS011;5531;42.570;23.676;2023-05-10T09:10:02;4.63;;;4.22;;
10957;SDS011;5531;42.570;23.676;2023-05-10T09:12:31;10.10;;;4.60;;
10957;SDS011;5531;42.570;23.676;2023-05-10T09:14:59;5.18;;;4.40;;
10957;SDS011;5531;42.570;23.676;2023-05-10T09:17:31;4.88;;;4.20;;
10957;SDS011;5531;42.570;23.676;2023-05-10T09:20:00;4.78;;;4.05;;
10957;SDS011;5531;42.570;23.676;2023-05-10T09:22:29;4.70;;;4.15;;
10957;SDS011;5531;42.570;23.676;2023-05-10T09:25:11;6.00;;;4.63;;
10957;SDS011;5531;42.570;23.676;2023-05-10T09:27:40;4.32;;;3.83;;
10957;SDS011;5531;42.570;23.676;2023-05-10T09:30:09;6.60;;;4.57;;
10957;SDS011;5531;42.570;23.676;2023-05-10T09:32:38;4.50;;;4.00;;
10957;SDS011;5531;42.570;23.676;2023-05-10T09:35:08;4.50;;;3.70;;
10957;SDS011;5531;42.570;23.676;2023-05-10T09:37:36;4.15;;;3.75;;
10957;SDS011;5531;42.570;23.676;2023-05-10T09:40:07;4.35;;;3.67;;
10957;SDS011;5531;42.570;23.676;2023-05-10T09:42:38;6.40;;;3.92;;
10957;SDS011;5531;42.570;23.676;2023-05-10T09:45:07;6.03;;;3.75;;
10957;SDS011;5531;42.570;23.676;2023-05-10T09:47:36;4.47;;;3.70;;
10957;SDS011;5531;42.570;23.676;2023-05-10T09:50:05;3.95;;;3.58;;
10957;SDS011;5531;42.570;23.676;2023-05-10T09:52:45;4.03;;;3.55;;
10957;SDS011;5531;42.570;23.676;2023-05-10T09:55:14;4.00;;;3.60;;
10957;SDS011;5531;42.570;23.676;2023-05-10T09:57:45;3.65;;;3.28;;
10957;SDS011;5531;42.570;23.676;2023-05-10T10:00:17;5.18;;;3.60;;
10957;SDS011;5531;42.570;23.676;2023-05-10T10:02:47;4.25;;;3.85;;
10957;SDS011;5531;42.570;23.676;2023-05-10T10:05:16;6.88;;;6.18;;
10957;SDS011;5531;42.570;23.676;2023-05-10T10:07:45;7.47;;;6.63;;
10957;SDS011;5531;42.570;23.676;2023-05-10T10:10:15;4.47;;;4.03;;
10957;SDS011;5531;42.570;23.676;2023-05-10T10:12:47;5.35;;;3.60;;
10957;SDS011;5531;42.570;23.676;2023-05-10T10:15:15;4.07;;;3.50;;
10957;SDS011;5531;42.570;23.676;2023-05-10T10:17:44;4.70;;;3.35;;
10957;SDS011;5531;42.570;23.676;2023-05-10T10:20:13;4.32;;;3.50;;
10957;SDS011;5531;42.570;23.676;2023-05-10T10:22:42;3.60;;;3.20;;
10957;SDS011;5531;42.570;23.676;2023-05-10T10:25:11;4.75;;;4.38;;
10957;SDS011;5531;42.570;23.676;2023-05-10T10:27:43;3.20;;;2.90;;
10957;SDS011;5531;42.570;23.676;2023-05-10T10:30:18;4.38;;;3.30;;
10957;SDS011;5531;42.570;23.676;2023-05-10T10:32:55;3.92;;;3.17;;
10957;SDS011;5531;42.570;23.676;2023-05-10T10:35:28;3.42;;;2.90;;
10957;SDS011;5531;42.570;23.676;2023-05-10T10:37:57;3.42;;;3.13;;
10957;SDS011;5531;42.570;23.676;2023-05-10T10:40:26;3.80;;;3.17;;
10957;SDS011;5531;42.570;23.676;2023-05-10T10:42:56;4.22;;;3.10;;
10957;SDS011;5531;42.570;23.676;2023-05-10T10:45:27;4.20;;;2.88;;
10957;SDS011;5531;42.570;23.676;2023-05-10T10:50:45;3.28;;;2.97;;
10957;SDS011;5531;42.570;23.676;2023-05-10T10:53:14;3.80;;;3.50;;
10957;SDS011;5531;42.570;23.676;2023-05-10T10:55:45;4.95;;;3.53;;
10957;SDS011;5531;42.570;23.676;2023-05-10T10:58:28;3.65;;;3.08;;
10957;SDS011;5531;42.570;23.676;2023-05-10T11:01:11;4.00;;;3.60;;
10957;SDS011;5531;42.570;23.676;2023-05-10T11:03:40;3.53;;;2.85;;
10957;SDS011;5531;42.570;23.676;2023-05-10T11:06:09;3.50;;;3.20;;
10957;SDS011;5531;42.570;23.676;2023-05-10T11:08:41;4.78;;;3.50;;
10957;SDS011;5531;42.570;23.676;2023-05-10T11:11:13;3.58;;;3.28;;
10957;SDS011;5531;42.570;23.676;2023-05-10T11:13:43;4.13;;;3.63;;
10957;SDS011;5531;42.570;23.676;2023-05-10T11:16:16;4.00;;;3.08;;
10957;SDS011;5531;42.570;23.676;2023-05-10T11:18:52;4.28;;;3.50;;
10957;SDS011;5531;42.570;23.676;2023-05-10T11:21:21;5.30;;;3.97;;
10957;SDS011;5531;42.570;23.676;2023-05-10T11:23:50;3.80;;;3.40;;
10957;SDS011;5531;42.570;23.676;2023-05-10T11:26:21;3.80;;;3.28;;
10957;SDS011;5531;42.570;23.676;2023-05-10T11:28:51;4.35;;;3.35;;
10957;SDS011;5531;42.570;23.676;2023-05-10T11:31:23;5.10;;;3.38;;
10957;SDS011;5531;42.570;23.676;2023-05-10T11:33:52;3.30;;;3.00;;
10957;SDS011;5531;42.570;23.676;2023-05-10T11:36:23;4.30;;;3.90;;
10957;SDS011;5531;42.570;23.676;2023-05-10T11:38:52;6.10;;;3.83;;
10957;SDS011;5531;42.570;23.676;2023-05-10T11:41:21;9.85;;;8.95;;
10957;SDS011;5531;42.570;23.676;2023-05-10T11:43:50;5.07;;;4.50;;
10957;SDS011;5531;42.570;23.676;2023-05-10T11:46:20;4.47;;;3.70;;
10957;SDS011;5531;42.570;23.676;2023-05-10T11:51:19;3.83;;;3.10;;
10957;SDS011;5531;42.570;23.676;2023-05-10T11:53:49;3.97;;;3.53;;
10957;SDS011;5531;42.570;23.676;2023-05-10T11:56:17;5.00;;;3.80;;
10957;SDS011;5531;42.570;23.676;2023-05-10T11:58:51;3.60;;;2.90;;
10957;SDS011;5531;42.570;23.676;2023-05-10T12:01:20;3.45;;;3.10;;
10957;SDS011;5531;42.570;23.676;2023-05-10T12:03:49;3.58;;;3.28;;
10957;SDS011;5531;42.570;23.676;2023-05-10T12:06:21;4.75;;;3.08;;
10957;SDS011;5531;42.570;23.676;2023-05-10T12:08:50;3.75;;;3.45;;
10957;SDS011;5531;42.570;23.676;2023-05-10T12:11:19;3.35;;;3.05;;
10957;SDS011;5531;42.570;23.676;2023-05-10T12:13:49;3.70;;;3.10;;
10957;SDS011;5531;42.570;23.676;2023-05-10T12:16:18;5.95;;;3.67;;
10957;SDS011;5531;42.570;23.676;2023-05-10T12:18:48;3.75;;;3.45;;
10957;SDS011;5531;42.570;23.676;2023-05-10T12:21:16;3.88;;;3.40;;
10957;SDS011;5531;42.570;23.676;2023-05-10T12:23:48;3.75;;;3.28;;
10957;SDS011;5531;42.570;23.676;2023-05-10T12:26:18;3.88;;;3.42;;
10957;SDS011;5531;42.570;23.676;2023-05-10T12:28:46;3.83;;;3.42;;
10957;SDS011;5531;42.570;23.676;2023-05-10T12:31:15;4.38;;;3.40;;
10957;SDS011;5531;42.570;23.676;2023-05-10T12:33:44;4.47;;;3.67;;
10957;SDS011;5531;42.570;23.676;2023-05-10T12:36:15;3.85;;;3.40;;
10957;SDS011;5531;42.570;23.676;2023-05-10T12:38:44;3.42;;;3.13;;
10957;SDS011;5531;42.570;23.676;2023-05-10T12:41:17;3.87;;;3.47;;
10957;SDS011;5531;42.570;23.676;2023-05-10T12:43:46;4.00;;;3.60;;
10957;SDS011;5531;42.570;23.676;2023-05-10T12:46:16;3.65;;;3.25;;
10957;SDS011;5531;42.570;23.676;2023-05-10T12:48:44;3.47;;;3.17;;
10957;SDS011;5531;42.570;23.676;2023-05-10T12:51:20;3.95;;;3.17;;
10957;SDS011;5531;42.570;23.676;2023-05-10T12:53:48;5.05;;;3.28;;
10957;SDS011;5531;42.570;23.676;2023-05-10T12:56:19;4.82;;;3.30;;
10957;SDS011;5531;42.570;23.676;2023-05-10T12:58:48;5.93;;;3.08;;
10957;SDS011;5531;42.570;23.676;2023-05-10T13:01:16;3.60;;;3.08;;
10957;SDS011;5531;42.570;23.676;2023-05-10T13:03:45;4.45;;;3.47;;
10957;SDS011;5531;42.570;23.676;2023-05-10T13:06:13;4.45;;;3.25;;
10957;SDS011;5531;42.570;23.676;2023-05-10T13:08:42;5.20;;;3.30;;
10957;SDS011;5531;42.570;23.676;2023-05-10T13:11:10;3.67;;;3.38;;
10957;SDS011;5531;42.570;23.676;2023-05-10T13:13:44;5.72;;;3.63;;
10957;SDS011;5531;42.570;23.676;2023-05-10T13:16:13;3.95;;;3.50;;
10957;SDS011;5531;42.570;23.676;2023-05-10T13:18:41;4.57;;;3.67;;
10957;SDS011;5531;42.570;23.676;2023-05-10T13:21:10;4.20;;;3.80;;
10957;SDS011;5531;42.570;23.676;2023-05-10T13:23:38;4.40;;;3.78;;
10957;SDS011;5531;42.570;23.676;2023-05-10T13:26:07;4.47;;;3.35;;
10957;SDS011;5531;42.570;23.676;2023-05-10T13:28:35;4.22;;;3.83;;
10957;SDS011;5531;42.570;23.676;2023-05-10T13:31:07;4.28;;;3.80;;
10957;SDS011;5531;42.570;23.676;2023-05-10T13:33:35;5.28;;;3.72;;
10957;SDS011;5531;42.570;23.676;2023-05-10T13:36:04;4.25;;;3.30;;
10957;SDS011;5531;42.570;23.676;2023-05-10T13:38:33;4.53;;;3.50;;
10957;SDS011;5531;42.570;23.676;2023-05-10T13:41:01;3.75;;;3.45;;
10957;SDS011;5531;42.570;23.676;2023-05-10T13:43:30;3.47;;;3.17;;
10957;SDS011;5531;42.570;23.676;2023-05-10T13:45:58;4.72;;;3.97;;
10957;SDS011;5531;42.570;23.676;2023-05-10T13:48:30;4.60;;;3.58;;
10957;SDS011;5531;42.570;23.676;2023-05-10T13:50:59;4.50;;;3.60;;
10957;SDS011;5531;42.570;23.676;2023-05-10T13:53:27;4.22;;;3.72;;
10957;SDS011;5531;42.570;23.676;2023-05-10T13:58:51;4.75;;;3.97;;
10957;SDS011;5531;42.570;23.676;2023-05-10T14:01:20;3.70;;;3.40;;
10957;SDS011;5531;42.570;23.676;2023-05-10T14:03:51;4.60;;;3.70;;
10957;SDS011;5531;42.570;23.676;2023-05-10T14:06:20;4.05;;;3.67;;
10957;SDS011;5531;42.570;23.676;2023-05-10T14:08:48;6.57;;;4.50;;
10957;SDS011;5531;42.570;23.676;2023-05-10T14:11:17;4.18;;;3.78;;
10957;SDS011;5531;42.570;23.676;2023-05-10T14:13:45;5.75;;;4.95;;
10957;SDS011;5531;42.570;23.676;2023-05-10T14:16:14;6.80;;;4.43;;
10957;SDS011;5531;42.570;23.676;2023-05-10T14:18:43;5.45;;;4.65;;
10957;SDS011;5531;42.570;23.676;2023-05-10T14:21:14;5.32;;;4.60;;
10957;SDS011;5531;42.570;23.676;2023-05-10T14:23:43;5.72;;;5.00;;
10957;SDS011;5531;42.570;23.676;2023-05-10T14:26:12;6.32;;;4.72;;
10957;SDS011;5531;42.570;23.676;2023-05-10T14:28:40;5.82;;;5.22;;
10957;SDS011;5531;42.570;23.676;2023-05-10T14:31:09;5.38;;;4.85;;
10957;SDS011;5531;42.570;23.676;2023-05-10T14:33:37;5.47;;;4.97;;
10957;SDS011;5531;42.570;23.676;2023-05-10T14:36:06;5.10;;;4.60;;
10957;SDS011;5531;42.570;23.676;2023-05-10T14:38:38;6.35;;;4.90;;
10957;SDS011;5531;42.570;23.676;2023-05-10T14:41:07;5.45;;;4.82;;
10957;SDS011;5531;42.570;23.676;2023-05-10T14:43:39;5.82;;;4.97;;
10957;SDS011;5531;42.570;23.676;2023-05-10T14:46:07;6.38;;;4.80;;
10957;SDS011;5531;42.570;23.676;2023-05-10T14:48:36;6.00;;;5.03;;
10957;SDS011;5531;42.570;23.676;2023-05-10T14:51:04;6.82;;;5.50;;
10957;SDS011;5531;42.570;23.676;2023-05-10T14:53:42;7.28;;;5.28;;
10957;SDS011;5531;42.570;23.676;2023-05-10T14:56:10;6.65;;;4.93;;
10957;SDS011;5531;42.570;23.676;2023-05-10T14:58:39;6.32;;;5.10;;
10957;SDS011;5531;42.570;23.676;2023-05-10T15:01:08;5.43;;;4.93;;
10957;SDS011;5531;42.570;23.676;2023-05-10T15:03:36;6.00;;;5.15;;
10957;SDS011;5531;42.570;23.676;2023-05-10T15:06:05;6.28;;;4.95;;
10957;SDS011;5531;42.570;23.676;2023-05-10T15:08:34;5.47;;;4.95;;
10957;SDS011;5531;42.570;23.676;2023-05-10T15:11:05;5.97;;;4.60;;
10957;SDS011;5531;42.570;23.676;2023-05-10T15:13:33;5.88;;;4.75;;
10957;SDS011;5531;42.570;23.676;2023-05-10T15:16:02;14.25;;;9.63;;
10957;SDS011;5531;42.570;23.676;2023-05-10T15:18:30;9.30;;;7.45;;